Aviation Digital Data Service (ADDS)

Output produced by METARs form (2241 UTC 20 January 2021)
found at http://aviationweather.gov/metar/data/
 
METAR text: KGGG 202153Z 07005KT OVC016 12/09 A3018 RMK AO2 SLP220 T01220089 RVRNO
Conditions at: KGGG (LONGVIEW , TX, US) observed 2153 UTC 20 January 2021
Temperature: 12.2°C (54°F)
Dewpoint: 8.9°C (48°F) [RH = 80%]
Pressure (altimeter): 30.18 inches Hg (1022.1 mb)
[Sea-level pressure: 1022.0 mb]
Winds: from the ENE (70 degrees) at 6 MPH (5 knots; 2.6 m/s)
Visibility: missing
Ceiling: 1600 feet AGL
Clouds: overcast cloud deck at 1600 feet AGL
Weather: no significant weather observed at this time

METAR text: KGGG 202053Z 06003KT 10SM OVC017 12/08 A3020 RMK AO2 RAE32 SLP226 P0000 60000 T01220083 56037
Conditions at: KGGG (LONGVIEW , TX, US) observed 2053 UTC 20 January 2021
Temperature: 12.2°C (54°F)
Dewpoint: 8.3°C (47°F) [RH = 77%]
Pressure (altimeter): 30.20 inches Hg (1022.8 mb)
[Sea-level pressure: 1022.6 mb]
Winds: from the ENE (60 degrees) at 3 MPH (3 knots; 1.5 m/s)
Visibility: 10 or more miles (16+ km)
Ceiling: 1700 feet AGL
Clouds: overcast cloud deck at 1700 feet AGL
Weather: no significant weather observed at this time

Forecast for: KGGG (LONGVIEW , TX, US)
Text: KGGG 201721Z 2018/2118 07005KT P6SM OVC024
Forecast period: 1800 to 1900 UTC 20 January 2021
Forecast type: FROM: standard forecast or significant change
Winds: from the ENE (70 degrees) at 6 MPH (5 knots; 2.6 m/s)
Visibility: 6 or more miles (10+ km)
Ceiling: 2400 feet AGL
Clouds: overcast cloud deck at 2400 feet AGL
Weather: no significant weather forecast for this period
Text: FM201900 10006KT P6SM OVC015
Forecast period: 1900 UTC 20 January 2021 to 0000 UTC 21 January 2021
Forecast type: FROM: standard forecast or significant change
Winds: from the E (100 degrees) at 7 MPH (6 knots; 3.1 m/s)
Visibility: 6 or more miles (10+ km)
Ceiling: 1500 feet AGL
Clouds: overcast cloud deck at 1500 feet AGL
Weather: no significant weather forecast for this period
Text: FM210000 21007KT P6SM VCSH OVC005
Forecast period: 0000 to 1400 UTC 21 January 2021
Forecast type: FROM: standard forecast or significant change
Winds: from the SSW (210 degrees) at 8 MPH (7 knots; 3.6 m/s)
Visibility: 6 or more miles (10+ km)
Ceiling: 500 feet AGL
Clouds: overcast cloud deck at 500 feet AGL
Weather: VCSH  (showers in vicinity)
Text: FM211400 23008KT 4SM -RA BR OVC003
Forecast period: 1400 to 1800 UTC 21 January 2021
Forecast type: FROM: standard forecast or significant change
Winds: from the SW (230 degrees) at 9 MPH (8 knots; 4.1 m/s)
Visibility: 4 miles (6 km)
Ceiling: 300 feet AGL
Clouds: overcast cloud deck at 300 feet AGL
Weather: -RA BR  (light rain, mist)